Time;durP1;ratioP1;P1;durP2;ratioP2;P2;SDS_P1;SDS_P2;PMS_P1;PMS_P2;Temp;Humidity;BMP_temperature;BMP_pressure;BME280_temperature;BME280_humidity;BME280_pressure;Samples;Min_cycle;Max_cycle;Signal;HPM_P1;HPM_P2
2023/10/23 00:01:05;;;;;;;4.27;2.57;;;;;;;13.75;55.01;97221.53;5039712;28;20584;-68
2023/10/23 00:03:30;;;;;;;6.33;2.97;;;;;;;13.75;54.54;97227.63;5035050;28;20285;-69
2023/10/23 00:05:56;;;;;;;6.20;3.03;;;;;;;13.70;54.53;97229.16;5028022;28;20176;-68
2023/10/23 00:08:21;;;;;;;3.77;2.37;;;;;;;13.63;54.68;97221.91;5034276;28;20178;-69
2023/10/23 00:10:47;;;;;;;5.03;2.27;;;;;;;13.53;55.07;97223.94;5037305;28;20310;-68
2023/10/23 00:13:12;;;;;;;7.20;2.77;;;;;;;13.46;55.05;97223.00;5035342;28;20298;-68
2023/10/23 00:15:39;;;;;;;9.40;2.83;;;;;;;13.49;55.23;97225.25;5030664;28;20183;-69
2023/10/23 00:18:04;;;;;;;5.00;2.20;;;;;;;13.45;55.41;97227.41;5029645;28;20180;-68
2023/10/23 00:20:30;;;;;;;4.60;2.40;;;;;;;13.47;55.38;97230.72;5027189;28;20969;-68
2023/10/23 00:22:55;;;;;;;5.13;2.10;;;;;;;13.45;55.76;97232.69;5030536;28;20702;-69
2023/10/23 00:25:20;;;;;;;3.50;2.20;;;;;;;13.40;55.61;97234.19;5029410;28;20180;-68
2023/10/23 00:27:46;;;;;;;5.53;2.57;;;;;;;13.39;55.88;97243.03;5034054;28;20255;-68
2023/10/23 00:30:12;;;;;;;4.60;2.30;;;;;;;13.45;55.85;97237.16;5031050;28;20290;-69
2023/10/23 00:32:37;;;;;;;5.20;2.73;;;;;;;13.48;55.21;97236.81;5035973;28;20211;-68
2023/10/23 00:35:04;;;;;;;4.43;2.17;;;;;;;13.53;54.81;97239.72;5030898;28;20563;-67
2023/10/23 00:37:30;;;;;;;4.03;1.87;;;;;;;13.33;54.83;97239.28;5032212;28;20672;-68
2023/10/23 00:39:55;;;;;;;4.37;2.03;;;;;;;13.33;55.10;97245.38;5031827;28;20433;-68
2023/10/23 00:42:21;;;;;;;3.20;1.97;;;;;;;13.35;54.91;97242.56;5043390;28;20257;-68
2023/10/23 00:44:46;;;;;;;4.70;2.20;;;;;;;13.33;55.17;97241.91;5035233;28;20204;-68
2023/10/23 00:47:12;;;;;;;6.70;2.20;;;;;;;13.37;54.97;97241.41;5028726;28;20223;-67
2023/10/23 00:49:37;;;;;;;7.87;2.37;;;;;;;13.30;55.15;97244.88;5039242;28;20184;-68
2023/10/23 00:52:03;;;;;;;3.30;2.03;;;;;;;13.21;55.16;97238.81;5030271;28;20183;-67
2023/10/23 00:54:29;;;;;;;4.50;2.70;;;;;;;13.18;55.78;97239.97;5032849;28;20203;-67
2023/10/23 00:56:55;;;;;;;4.17;2.33;;;;;;;13.14;56.15;97240.47;5008700;28;20204;-67
2023/10/23 00:59:21;;;;;;;6.20;2.10;;;;;;;13.18;56.17;97236.53;5033289;28;20595;-68
2023/10/23 01:01:47;;;;;;;3.00;2.13;;;;;;;13.21;55.86;97233.56;5034403;28;21008;-68
2023/10/23 01:04:13;;;;;;;5.90;2.60;;;;;;;13.20;55.94;97229.28;5028694;28;20443;-68
2023/10/23 01:06:38;;;;;;;2.90;1.97;;;;;;;13.13;55.86;97233.56;5027963;28;20191;-67
2023/10/23 01:09:04;;;;;;;6.00;2.57;;;;;;;13.10;56.12;97228.66;5028432;28;20187;-67
2023/10/23 01:11:30;;;;;;;8.23;2.47;;;;;;;13.09;55.91;97232.28;5026762;28;20279;-66
2023/10/23 01:13:55;;;;;;;9.57;2.27;;;;;;;13.04;55.20;97225.69;5035428;28;20450;-67
2023/10/23 01:16:20;;;;;;;3.70;2.30;;;;;;;13.01;55.79;97223.38;5022699;28;20225;-68
2023/10/23 01:18:46;;;;;;;2.93;2.17;;;;;;;12.90;55.83;97221.09;5028125;28;20207;-66
2023/10/23 01:21:12;;;;;;;4.67;2.43;;;;;;;12.88;55.84;97220.44;5032716;28;20175;-67
2023/10/23 01:23:41;;;;;;;5.30;2.50;;;;;;;12.89;55.99;97211.56;5037408;28;20198;-68
2023/10/23 01:26:06;;;;;;;6.20;2.27;;;;;;;12.89;56.57;97215.03;5030201;28;20179;-67
2023/10/23 01:28:32;;;;;;;4.27;2.13;;;;;;;12.84;56.37;97219.97;5032033;28;20422;-68
2023/10/23 01:30:58;;;;;;;4.37;2.07;;;;;;;12.90;56.31;97223.75;5029869;28;20576;-67
2023/10/23 01:33:24;;;;;;;3.07;1.90;;;;;;;12.88;56.47;97221.28;5027604;28;20310;-68
2023/10/23 01:35:50;;;;;;;4.23;2.13;;;;;;;12.89;56.28;97217.66;5020555;28;20502;-66
2023/10/23 01:38:15;;;;;;;2.93;1.80;;;;;;;12.90;56.52;97227.22;5028398;28;20711;-68
2023/10/23 01:40:41;;;;;;;4.13;2.20;;;;;;;12.97;55.83;97226.53;5030451;28;20184;-68
2023/10/23 01:43:06;;;;;;;3.97;2.20;;;;;;;12.88;55.93;97226.53;5039838;28;20204;-66
2023/10/23 01:45:32;;;;;;;5.67;2.23;;;;;;;12.84;55.95;97224.41;5028866;28;20184;-68
2023/10/23 01:47:57;;;;;;;5.90;1.97;;;;;;;12.88;55.67;97220.44;5029637;28;20271;-67
2023/10/23 01:50:24;;;;;;;2.10;1.90;;;;;;;12.83;55.81;97220.94;5021279;28;20265;-67
2023/10/23 01:52:49;;;;;;;3.83;2.00;;;;;;;12.79;55.92;97222.25;5028123;28;20596;-68
2023/10/23 01:55:15;;;;;;;4.53;2.50;;;;;;;12.77;55.87;97223.44;5022674;28;20439;-66
2023/10/23 01:57:40;;;;;;;3.63;1.97;;;;;;;12.81;55.95;97215.03;5022597;28;20180;-67
2023/10/23 02:00:06;;;;;;;3.30;2.40;;;;;;;12.77;56.00;97223.44;5032145;28;20187;-68
2023/10/23 02:02:33;;;;;;;4.07;2.20;;;;;;;12.77;56.38;97224.25;5032337;28;20231;-67
2023/10/23 02:04:59;;;;;;;6.40;2.20;;;;;;;12.77;56.53;97218.16;5035876;28;20427;-69
2023/10/23 02:07:24;;;;;;;3.07;2.10;;;;;;;12.69;56.44;97217.19;5028869;28;20518;-68
2023/10/23 02:09:50;;;;;;;4.47;2.10;;;;;;;12.63;56.61;97220.47;5030780;28;20508;-68
2023/10/23 02:12:15;;;;;;;6.77;2.27;;;;;;;12.59;56.79;97219.19;5021555;28;20855;-68
2023/10/23 02:14:40;;;;;;;4.90;2.33;;;;;;;12.61;56.68;97217.19;5029915;28;20389;-68
2023/10/23 02:17:06;;;;;;;2.37;2.00;;;;;;;12.60;56.24;97213.75;5031513;28;20216;-68
2023/10/23 02:19:31;;;;;;;5.10;2.20;;;;;;;12.58;56.13;97209.66;5040178;28;20203;-68
2023/10/23 02:21:57;;;;;;;5.00;2.00;;;;;;;12.60;55.99;97216.38;5035728;28;20262;-69
2023/10/23 02:24:23;;;;;;;5.13;2.10;;;;;;;12.61;55.98;97217.19;5039519;28;20200;-68
2023/10/23 02:26:48;;;;;;;3.27;1.87;;;;;;;12.56;55.48;97216.88;5035994;28;20191;-68
2023/10/23 02:29:14;;;;;;;4.03;1.90;;;;;;;12.51;55.97;97225.25;5035762;28;20188;-69
2023/10/23 02:31:39;;;;;;;3.47;1.83;;;;;;;12.55;56.03;97220.47;5037072;28;20278;-67
2023/10/23 02:34:05;;;;;;;5.30;2.20;;;;;;;12.51;56.18;97219.16;5038774;28;20208;-67
2023/10/23 02:36:31;;;;;;;4.17;2.30;;;;;;;12.49;56.15;97215.88;5039681;28;20203;-68
2023/10/23 02:38:56;;;;;;;4.60;2.10;;;;;;;12.46;56.66;97210.97;5036963;28;20191;-66
2023/10/23 02:41:22;;;;;;;2.90;1.90;;;;;;;12.45;56.48;97215.38;5039921;28;20188;-68
2023/10/23 02:43:49;;;;;;;4.97;2.30;;;;;;;12.37;56.34;97215.38;5042381;28;20280;-68
2023/10/23 02:46:15;;;;;;;4.90;2.23;;;;;;;12.33;56.45;97214.91;5031577;28;20229;-67
2023/10/23 02:48:40;;;;;;;2.87;1.80;;;;;;;12.30;56.24;97223.09;5032415;28;20422;-68
2023/10/23 02:51:06;;;;;;;3.43;2.10;;;;;;;12.29;56.53;97224.09;5037144;28;20191;-68
2023/10/23 02:53:31;;;;;;;2.23;1.70;;;;;;;12.27;56.63;97215.53;5047642;28;20234;-67
2023/10/23 02:55:57;;;;;;;4.40;2.00;;;;;;;12.30;56.13;97225.72;5038620;28;20620;-68
2023/10/23 02:58:22;;;;;;;6.50;2.37;;;;;;;12.23;56.07;97227.34;5031811;28;20187;-68
2023/10/23 03:00:48;;;;;;;3.13;2.00;;;;;;;12.30;55.91;97233.63;5038616;28;20191;-67
2023/10/23 03:03:13;;;;;;;3.83;2.10;;;;;;;12.20;55.76;97225.06;5029649;28;20204;-68
2023/10/23 03:05:39;;;;;;;5.53;2.30;;;;;;;12.12;56.21;97223.25;5028168;28;20242;-68
2023/10/23 03:08:05;;;;;;;4.60;2.53;;;;;;;12.13;55.89;97230.94;5031212;28;20191;-69
2023/10/23 03:10:31;;;;;;;6.30;1.60;;;;;;;12.12;55.50;97224.06;5031182;28;20195;-69
2023/10/23 03:12:56;;;;;;;2.37;1.63;;;;;;;12.10;55.65;97226.00;5032623;28;20474;-68
2023/10/23 03:15:22;;;;;;;2.20;1.70;;;;;;;11.91;56.11;97228.91;5036315;28;20430;-68
2023/10/23 03:17:48;;;;;;;1.60;1.37;;;;;;;11.86;56.65;97225.94;5030401;28;20188;-67
2023/10/23 03:20:14;;;;;;;3.00;1.73;;;;;;;11.91;56.66;97228.91;5038734;28;20207;-68
2023/10/23 03:22:39;;;;;;;4.17;2.20;;;;;;;11.97;56.61;97225.66;5038658;28;20592;-69
2023/10/23 03:25:05;;;;;;;11.97;2.33;;;;;;;12.02;56.33;97227.81;5034106;28;20422;-69
2023/10/23 03:27:31;;;;;;;2.97;1.77;;;;;;;11.98;55.98;97224.66;5032131;28;20275;-69
2023/10/23 03:29:57;;;;;;;3.37;1.80;;;;;;;12.00;56.17;97225.34;5035985;28;20534;-69
2023/10/23 03:32:23;;;;;;;4.33;2.20;;;;;;;11.91;56.19;97223.66;5031690;28;20448;-69
2023/10/23 03:34:49;;;;;;;4.40;1.90;;;;;;;11.92;56.06;97227.91;5031864;28;20191;-67
2023/10/23 03:37:14;;;;;;;4.33;1.97;;;;;;;11.90;55.94;97219.38;5032892;28;20490;-67
2023/10/23 03:39:40;;;;;;;2.50;2.07;;;;;;;11.82;56.52;97228.06;5029738;28;20195;-68
2023/10/23 03:42:06;;;;;;;4.60;3.20;;;;;;;11.78;57.16;97224.94;5028860;28;20194;-69
2023/10/23 03:44:31;;;;;;;6.50;2.60;;;;;;;11.81;56.96;97226.41;5034008;28;20181;-68
2023/10/23 03:46:56;;;;;;;3.97;2.13;;;;;;;11.82;56.60;97222.81;5029646;28;20513;-67
2023/10/23 03:49:22;;;;;;;6.10;2.20;;;;;;;11.83;56.93;97222.66;5030910;28;20222;-68
2023/10/23 03:51:47;;;;;;;4.43;2.30;;;;;;;11.80;56.86;97217.72;5019738;28;20188;-70
2023/10/23 03:54:13;;;;;;;9.63;2.60;;;;;;;11.80;56.69;97222.97;5040325;28;20290;-69
2023/10/23 03:56:38;;;;;;;3.70;2.10;;;;;;;11.82;56.69;97215.75;5027666;28;20709;-66
2023/10/23 03:59:04;;;;;;;4.00;2.10;;;;;;;11.82;56.15;97210.50;5029154;28;20357;-69
2023/10/23 04:01:30;;;;;;;2.50;1.87;;;;;;;11.77;56.47;97219.84;5031663;28;20206;-68
2023/10/23 04:03:55;;;;;;;3.57;2.20;;;;;;;11.69;56.27;97215.38;5033790;28;20434;-67
2023/10/23 04:06:21;;;;;;;4.33;2.40;;;;;;;11.64;56.22;97213.25;5039846;28;20207;-68
2023/10/23 04:08:46;;;;;;;5.53;2.30;;;;;;;11.64;56.21;97212.41;5028487;28;20219;-68
2023/10/23 04:11:14;;;;;;;2.37;1.90;;;;;;;11.60;55.98;97206.66;5034772;28;20286;-67
2023/10/23 04:13:40;;;;;;;4.50;2.43;;;;;;;11.59;56.27;97214.69;5037829;28;20246;-69
2023/10/23 04:16:06;;;;;;;4.77;2.80;;;;;;;11.60;56.40;97208.44;5029735;28;20466;-67
2023/10/23 04:18:31;;;;;;;3.97;2.27;;;;;;;11.57;56.26;97200.91;5030191;28;20180;-69
2023/10/23 04:21:07;;;;;;;3.13;2.53;;;;;;;11.59;56.10;97205.00;5033153;28;20191;-68
2023/10/23 04:23:32;;;;;;;2.57;2.20;;;;;;;11.58;55.89;97208.63;5029930;28;20282;-68
2023/10/23 04:25:58;;;;;;;3.00;2.13;;;;;;;11.52;55.93;97204.81;5012833;28;20526;-68
2023/10/23 04:28:24;;;;;;;5.80;2.20;;;;;;;11.56;55.79;97200.06;5003315;28;20423;-67
2023/10/23 04:30:50;;;;;;;2.53;2.10;;;;;;;11.54;55.71;97202.03;5027848;28;20195;-67
2023/10/23 04:33:22;;;;;;;2.70;2.20;;;;;;;11.55;55.89;97193.19;5000456;28;20877;-67
2023/10/23 04:36:05;;;;;;;3.97;2.23;;;;;;;11.47;56.03;97196.59;5029248;28;20442;-68
2023/10/23 04:38:31;;;;;;;5.00;2.50;;;;;;;11.47;56.32;97195.78;5032348;28;20903;-68
2023/10/23 04:40:56;;;;;;;5.93;3.50;;;;;;;11.46;56.38;97199.38;5034892;28;20430;-69
2023/10/23 04:43:22;;;;;;;6.50;4.00;;;;;;;11.40;56.50;97190.34;5040438;28;20201;-67
2023/10/23 04:45:48;;;;;;;5.73;3.87;;;;;;;11.41;56.83;97191.16;5046132;28;20180;-68
2023/10/23 04:48:14;;;;;;;4.93;3.30;;;;;;;11.37;56.70;97190.66;5036574;28;20571;-68
2023/10/23 04:50:39;;;;;;;4.30;3.03;;;;;;;11.37;56.69;97195.91;5032598;28;20491;-68
2023/10/23 04:53:06;;;;;;;4.73;3.03;;;;;;;11.34;56.70;97188.38;5038263;28;20219;-69
2023/10/23 04:55:35;;;;;;;6.40;3.10;;;;;;;11.32;56.40;97188.50;5002831;28;20248;-68
2023/10/23 04:58:01;;;;;;;6.70;2.80;;;;;;;11.33;56.16;97178.84;4994735;28;20793;-67
2023/10/23 05:00:27;;;;;;;4.23;2.30;;;;;;;11.29;56.00;97180.94;5004977;28;20484;-68
2023/10/23 05:02:53;;;;;;;3.67;2.37;;;;;;;11.21;55.77;97171.22;5035865;28;20199;-68
2023/10/23 05:05:18;;;;;;;5.67;2.67;;;;;;;11.15;56.19;97165.81;5033398;28;20418;-68
2023/10/23 05:07:44;;;;;;;5.10;2.40;;;;;;;11.14;56.30;97167.59;5032792;28;20267;-68
2023/10/23 05:10:11;;;;;;;6.97;3.27;;;;;;;11.17;56.21;97166.44;5026857;28;20249;-68
2023/10/23 05:12:37;;;;;;;8.47;3.23;;;;;;;11.19;56.30;97167.13;5040309;28;20198;-68
2023/10/23 05:15:02;;;;;;;6.40;2.87;;;;;;;11.21;56.25;97175.66;5030281;28;20931;-68
2023/10/23 05:17:28;;;;;;;5.50;3.20;;;;;;;11.19;56.53;97167.97;5027426;28;20180;-68
2023/10/23 05:19:53;;;;;;;8.67;2.77;;;;;;;11.17;56.67;97172.53;5037684;28;20414;-69
2023/10/23 05:22:19;;;;;;;6.70;2.90;;;;;;;11.13;56.78;97176.44;5038832;28;20397;-68
2023/10/23 05:24:48;;;;;;;5.80;3.30;;;;;;;11.10;56.91;97173.31;5029655;28;20204;-69
2023/10/23 05:27:14;;;;;;;5.63;4.30;;;;;;;11.12;56.69;97177.41;5031244;28;20182;-68
2023/10/23 05:29:39;;;;;;;4.43;3.20;;;;;;;11.18;56.68;97166.31;5043801;28;20516;-68
2023/10/23 05:32:05;;;;;;;5.37;3.23;;;;;;;11.12;56.18;97176.59;5030208;28;20529;-69
2023/10/23 05:34:30;;;;;;;4.80;3.77;;;;;;;11.12;56.36;97180.03;5039116;28;20257;-68
2023/10/23 05:36:56;;;;;;;4.47;3.07;;;;;;;11.13;56.48;97173.81;5031672;28;20198;-67
2023/10/23 05:39:21;;;;;;;5.80;3.57;;;;;;;11.14;56.67;97180.72;5039015;28;20229;-67
2023/10/23 05:41:47;;;;;;;4.23;3.13;;;;;;;11.12;56.35;97181.84;5034736;28;20247;-67
2023/10/23 05:44:12;;;;;;;5.70;3.03;;;;;;;11.11;56.35;97180.22;5030779;28;20230;-67
2023/10/23 05:46:38;;;;;;;4.93;3.10;;;;;;;11.00;56.56;97183.91;5027825;28;20237;-68
2023/10/23 05:49:03;;;;;;;6.17;3.60;;;;;;;11.04;57.02;97190.50;5036481;28;20827;-68
2023/10/23 05:51:28;;;;;;;6.33;4.07;;;;;;;11.02;57.07;97205.56;5028346;28;20744;-68
2023/10/23 05:53:56;;;;;;;5.50;3.60;;;;;;;11.01;57.55;97211.78;5034348;28;20281;-68
2023/10/23 05:56:21;;;;;;;10.03;3.70;;;;;;;11.05;57.73;97213.13;5041351;28;20179;-68
2023/10/23 05:58:48;;;;;;;5.60;3.83;;;;;;;11.05;57.45;97205.25;5043071;28;20516;-68
2023/10/23 06:01:14;;;;;;;7.20;3.57;;;;;;;11.04;57.58;97207.03;5029539;28;20183;-68
2023/10/23 06:03:39;;;;;;;7.63;4.90;;;;;;;11.03;57.60;97207.22;5029384;28;20436;-68
2023/10/23 06:06:05;;;;;;;14.13;6.50;;;;;;;11.07;57.57;97212.00;5037622;28;20191;-67
2023/10/23 06:08:30;;;;;;;11.37;7.10;;;;;;;11.01;57.66;97212.63;5031797;28;20571;-68
2023/10/23 06:10:56;;;;;;;11.90;6.90;;;;;;;11.04;57.48;97207.03;5032224;28;20227;-68
2023/10/23 06:13:21;;;;;;;15.33;7.10;;;;;;;11.10;57.29;97205.59;5034562;28;20220;-67
2023/10/23 06:15:47;;;;;;;13.77;7.17;;;;;;;11.05;57.40;97203.44;5039301;28;20188;-68
2023/10/23 06:18:13;;;;;;;12.33;5.80;;;;;;;11.07;57.11;97212.00;5031671;28;20615;-67
2023/10/23 06:20:38;;;;;;;7.67;5.50;;;;;;;11.14;57.27;97206.94;5040105;28;20462;-68
2023/10/23 06:23:04;;;;;;;6.73;4.50;;;;;;;11.16;57.42;97205.00;5033426;28;20295;-67
2023/10/23 06:25:30;;;;;;;9.47;4.30;;;;;;;11.20;57.06;97205.50;5033519;28;20176;-68
2023/10/23 06:27:56;;;;;;;7.80;4.20;;;;;;;11.19;56.75;97194.19;5031648;28;20186;-68
2023/10/23 06:30:22;;;;;;;9.00;3.80;;;;;;;11.19;56.94;97188.94;5041129;28;20465;-67
2023/10/23 06:32:48;;;;;;;10.23;4.23;;;;;;;11.21;56.97;97191.41;5031639;28;20490;-68
2023/10/23 06:35:15;;;;;;;6.10;3.87;;;;;;;11.28;57.15;97189.78;5035697;28;20180;-68
2023/10/23 06:37:40;;;;;;;7.70;4.20;;;;;;;11.34;57.14;97186.53;5038134;28;20203;-68
2023/10/23 06:40:06;;;;;;;12.37;5.00;;;;;;;11.40;57.57;97194.78;5032385;28;21054;-68
2023/10/23 06:42:32;;;;;;;10.70;5.20;;;;;;;11.52;57.85;97199.56;5037522;28;20211;-68
2023/10/23 06:44:58;;;;;;;6.27;4.87;;;;;;;11.68;58.32;97203.25;5034546;28;20507;-68
2023/10/23 06:47:24;;;;;;;8.03;4.87;;;;;;;11.86;58.67;97202.28;5032524;28;20422;-68
2023/10/23 06:49:49;;;;;;;10.10;4.73;;;;;;;12.00;58.64;97201.69;5031091;28;20414;-68
2023/10/23 06:52:15;;;;;;;13.50;4.90;;;;;;;12.08;58.03;97193.84;5035326;28;20180;-69
2023/10/23 06:54:40;;;;;;;8.27;4.97;;;;;;;12.15;57.78;97191.41;5029752;28;20215;-68
2023/10/23 06:57:06;;;;;;;12.30;4.83;;;;;;;12.13;57.53;97181.03;5032398;28;20209;-69
2023/10/23 06:59:33;;;;;;;19.13;4.87;;;;;;;12.22;57.87;97178.44;5030929;28;20199;-68
2023/10/23 07:01:59;;;;;;;9.80;5.60;;;;;;;12.29;57.79;97172.34;5038116;28;20436;-68
2023/10/23 07:04:24;;;;;;;10.33;5.10;;;;;;;12.36;57.64;97172.50;5045442;28;20508;-67
2023/10/23 07:06:49;;;;;;;7.33;4.67;;;;;;;12.33;57.31;97167.59;5031705;28;20287;-68
2023/10/23 07:09:17;;;;;;;6.73;4.60;;;;;;;12.44;58.13;97166.41;5029268;28;20278;-68
2023/10/23 07:11:42;;;;;;;7.50;5.00;;;;;;;12.52;58.44;97168.22;5031391;28;20195;-68
2023/10/23 07:14:08;;;;;;;7.20;4.07;;;;;;;12.54;58.34;97167.06;5029545;28;20833;-68
2023/10/23 07:16:33;;;;;;;6.93;4.60;;;;;;;12.64;58.52;97164.28;5042894;28;20183;-68
2023/10/23 07:18:58;;;;;;;7.20;5.47;;;;;;;12.66;57.52;97166.75;5030256;28;20287;-68
2023/10/23 07:21:25;;;;;;;7.93;5.60;;;;;;;12.71;57.38;97167.91;5031072;28;20210;-68
2023/10/23 07:23:51;;;;;;;7.80;5.10;;;;;;;12.78;57.64;97164.59;5041361;28;20216;-68
2023/10/23 07:26:16;;;;;;;9.20;5.53;;;;;;;12.86;57.51;97156.66;5030444;28;20795;-69
2023/10/23 07:28:42;;;;;;;9.40;5.40;;;;;;;12.96;57.62;97156.50;5033701;28;20189;-68
2023/10/23 07:31:08;;;;;;;8.20;6.20;;;;;;;13.02;57.75;97148.75;5030222;28;20191;-68
2023/10/23 07:33:34;;;;;;;8.33;4.60;;;;;;;13.12;57.70;97143.28;5038724;28;20226;-69
2023/10/23 07:36:04;;;;;;;9.10;5.73;;;;;;;13.23;57.68;97144.75;5038668;28;20423;-69
2023/10/23 07:38:30;;;;;;;8.30;5.10;;;;;;;13.32;57.65;97148.97;5031069;28;20188;-68
2023/10/23 07:40:55;;;;;;;11.73;5.60;;;;;;;13.42;57.72;97151.41;5038664;28;20445;-69
2023/10/23 07:43:21;;;;;;;8.40;5.20;;;;;;;13.51;57.76;97149.56;5035085;28;20976;-68
2023/10/23 07:45:46;;;;;;;11.80;5.90;;;;;;;13.58;57.14;97153.16;5025494;28;20587;-68
2023/10/23 07:48:12;;;;;;;11.17;5.60;;;;;;;13.56;56.25;97146.41;5030499;28;20257;-69
2023/10/23 07:50:37;;;;;;;10.90;5.00;;;;;;;13.44;56.27;97151.25;5029938;28;20286;-71
2023/10/23 07:53:03;;;;;;;11.23;5.50;;;;;;;13.36;56.57;97141.56;5028055;28;20311;-70
2023/10/23 07:55:28;;;;;;;8.00;5.90;;;;;;;13.36;56.80;97145.00;5040643;28;20214;-70
2023/10/23 07:57:53;;;;;;;12.83;5.57;;;;;;;13.34;56.47;97141.72;5031460;28;20257;-70
2023/10/23 08:00:19;;;;;;;17.90;5.60;;;;;;;13.32;56.92;97138.44;5038651;28;20219;-69
2023/10/23 08:02:44;;;;;;;11.00;5.17;;;;;;;13.29;56.64;97137.97;5032607;28;20206;-69
2023/10/23 08:05:10;;;;;;;12.00;5.50;;;;;;;13.17;56.69;97129.63;5037943;28;20344;-70
2023/10/23 08:07:35;;;;;;;11.77;5.63;;;;;;;13.18;57.11;97131.25;5029995;28;20210;-70
2023/10/23 08:10:01;;;;;;;8.00;5.83;;;;;;;13.17;57.13;97125.16;5042638;28;20722;-69
2023/10/23 08:12:26;;;;;;;11.00;5.70;;;;;;;13.28;57.74;97131.06;5043684;28;20687;-69
2023/10/23 08:14:51;;;;;;;9.80;5.67;;;;;;;13.26;57.07;97130.41;5040062;28;20214;-68
2023/10/23 08:17:17;;;;;;;9.10;5.63;;;;;;;13.23;57.19;97121.06;5029141;28;20278;-69
2023/10/23 08:19:42;;;;;;;11.13;6.00;;;;;;;13.23;57.68;97113.16;5018543;28;20191;-69
2023/10/23 08:22:08;;;;;;;12.13;6.37;;;;;;;13.30;57.48;97116.75;5043531;28;20198;-69
2023/10/23 08:24:34;;;;;;;9.50;4.90;;;;;;;13.41;57.12;97122.63;5039930;28;20544;-69
2023/10/23 08:26:59;;;;;;;8.70;5.77;;;;;;;13.43;57.46;97129.34;5029387;28;20422;-69
2023/10/23 08:29:26;;;;;;;14.53;5.80;;;;;;;13.45;57.38;97134.47;5034369;28;20195;-72
2023/10/23 08:31:52;;;;;;;9.50;5.57;;;;;;;13.50;57.70;97119.81;5037160;28;20188;-69
2023/10/23 08:34:21;;;;;;;7.60;5.57;;;;;;;13.54;57.29;97125.53;5029110;28;20494;-70
2023/10/23 08:36:47;;;;;;;9.90;5.40;;;;;;;13.58;57.51;97126.84;5035491;28;20280;-69
2023/10/23 08:39:13;;;;;;;10.77;5.83;;;;;;;13.59;57.41;97125.84;5028977;28;20480;-69
2023/10/23 08:41:38;;;;;;;6.73;5.77;;;;;;;13.65;57.48;97138.31;5034182;28;20942;-70
2023/10/23 08:44:04;;;;;;;10.57;6.03;;;;;;;13.79;57.77;97138.56;5038088;28;20206;-69
2023/10/23 08:46:31;;;;;;;7.63;5.43;;;;;;;13.87;57.60;97142.94;5042993;28;20186;-69
2023/10/23 08:48:57;;;;;;;10.50;5.00;;;;;;;13.89;57.31;97133.88;5033328;28;20206;-69
2023/10/23 08:51:23;;;;;;;9.33;4.90;;;;;;;13.94;56.81;97126.28;5039611;28;20808;-70
2023/10/23 08:53:50;;;;;;;8.60;5.10;;;;;;;14.02;56.88;97132.47;5034509;28;20215;-69
2023/10/23 08:56:16;;;;;;;8.87;4.70;;;;;;;14.09;56.34;97134.22;5025989;28;20422;-69
2023/10/23 08:58:42;;;;;;;9.23;5.30;;;;;;;14.15;56.27;97134.53;5034307;28;20425;-69
2023/10/23 09:01:07;;;;;;;9.53;4.63;;;;;;;14.18;56.38;97132.34;5037284;28;20183;-69
2023/10/23 09:03:33;;;;;;;15.00;4.63;;;;;;;14.23;56.22;97122.13;5037758;28;20946;-70
2023/10/23 09:05:59;;;;;;;7.83;4.30;;;;;;;14.29;56.50;97113.47;5037074;28;20274;-70
2023/10/23 09:08:27;;;;;;;6.53;4.30;;;;;;;14.34;56.57;97112.13;5029558;28;20267;-70
2023/10/23 09:11:03;;;;;;;7.50;3.70;;;;;;;14.37;56.41;97112.59;5034965;28;20418;-70
2023/10/23 09:13:40;;;;;;;4.33;3.60;;;;;;;14.43;56.11;97103.94;5026274;28;20836;-70
2023/10/23 09:16:08;;;;;;;6.03;4.07;;;;;;;14.50;55.91;97097.97;5040221;28;20429;-70
2023/10/23 09:18:45;;;;;;;5.47;4.40;;;;;;;14.51;55.66;97100.41;5027512;28;20443;-69
2023/10/23 09:21:11;;;;;;;8.43;3.63;;;;;;;14.51;55.13;97095.16;5025794;28;20449;-69
2023/10/23 09:23:49;;;;;;;6.73;4.10;;;;;;;14.53;55.54;97101.06;5026258;28;20951;-70
2023/10/23 09:26:15;;;;;;;8.03;3.40;;;;;;;14.56;55.43;97098.06;5029342;28;20437;-70
2023/10/23 09:28:40;;;;;;;7.33;3.90;;;;;;;14.59;55.47;97095.09;5038703;28;20521;-70
2023/10/23 09:31:06;;;;;;;7.33;3.60;;;;;;;14.65;55.28;97097.97;5028421;28;20275;-69
2023/10/23 09:33:32;;;;;;;4.53;3.37;;;;;;;14.68;55.56;97105.56;5032797;28;20226;-70
2023/10/23 09:36:00;;;;;;;6.97;3.60;;;;;;;14.72;55.46;97101.59;5023790;28;20188;-68
2023/10/23 09:38:26;;;;;;;5.40;3.57;;;;;;;14.78;55.31;97100.84;5043633;28;20426;-70
2023/10/23 09:40:56;;;;;;;8.30;3.47;;;;;;;14.77;55.16;97112.38;5029843;28;20422;-69
2023/10/23 09:43:23;;;;;;;7.30;4.17;;;;;;;14.74;55.19;97113.59;5031473;28;20438;-70
2023/10/23 09:45:48;;;;;;;9.03;3.30;;;;;;;14.78;55.21;97116.66;5029537;28;20878;-69
2023/10/23 09:48:14;;;;;;;7.07;3.60;;;;;;;14.79;54.96;97112.22;5028409;28;20459;-70
2023/10/23 09:50:42;;;;;;;9.40;3.70;;;;;;;14.81;55.01;97118.94;5030851;28;20218;-70
2023/10/23 09:53:09;;;;;;;5.03;3.40;;;;;;;14.80;54.86;97124.41;5033092;28;20215;-70
2023/10/23 09:55:35;;;;;;;4.00;3.00;;;;;;;14.80;55.26;97124.41;5033161;28;20514;-70
2023/10/23 09:58:06;;;;;;;4.03;3.13;;;;;;;14.85;55.05;97122.88;5035671;28;20426;-69
2023/10/23 10:00:33;;;;;;;6.33;2.90;;;;;;;14.90;55.40;97122.31;5037220;28;20418;-69
2023/10/23 10:02:59;;;;;;;8.33;3.07;;;;;;;14.95;55.17;97113.88;5035824;28;20449;-70
2023/10/23 10:05:42;;;;;;;6.47;2.93;;;;;;;15.00;55.00;97114.94;5025153;28;20419;-70
2023/10/23 10:08:08;;;;;;;5.40;3.17;;;;;;;15.05;54.93;97096.75;5034421;28;20413;-69
2023/10/23 10:10:38;;;;;;;7.00;3.00;;;;;;;15.12;54.59;97091.53;5029409;28;20985;-70
2023/10/23 10:13:03;;;;;;;9.73;3.20;;;;;;;15.20;54.61;97088.81;5027100;28;20461;-69
2023/10/23 10:15:30;;;;;;;6.53;3.27;;;;;;;15.25;54.30;97090.91;5027579;28;21036;-70
2023/10/23 10:17:56;;;;;;;6.30;3.63;;;;;;;15.30;54.06;97087.69;5034941;28;20248;-69
2023/10/23 10:20:22;;;;;;;5.40;3.00;;;;;;;15.32;54.17;97078.56;5032396;28;20430;-70
2023/10/23 10:22:55;;;;;;;4.13;2.90;;;;;;;15.39;53.96;97075.22;5029255;28;20286;-69
2023/10/23 10:25:21;;;;;;;7.67;3.30;;;;;;;15.46;53.91;97078.72;5031434;28;20884;-69
2023/10/23 10:27:57;;;;;;;7.23;4.17;;;;;;;15.51;53.75;97071.88;5028226;28;20437;-70
2023/10/23 10:30:42;;;;;;;4.50;3.10;;;;;;;15.53;53.84;97071.72;5030342;28;20199;-69
2023/10/23 10:33:08;;;;;;;10.30;3.50;;;;;;;15.58;53.76;97065.88;5027417;28;20557;-70
2023/10/23 10:35:34;;;;;;;7.90;3.37;;;;;;;15.62;53.84;97056.56;5033358;28;20423;-70
2023/10/23 10:38:00;;;;;;;3.80;3.30;;;;;;;15.65;53.54;97049.09;5042173;28;20430;-70
2023/10/23 10:40:25;;;;;;;10.60;3.37;;;;;;;15.69;53.74;97054.81;5036239;28;20317;-70
2023/10/23 10:42:51;;;;;;;6.33;3.57;;;;;;;15.70;53.68;97055.59;5040477;28;20207;-70
2023/10/23 10:45:17;;;;;;;8.53;3.83;;;;;;;15.74;53.74;97056.88;5033169;28;20223;-70
2023/10/23 10:47:48;;;;;;;9.97;3.90;;;;;;;15.76;53.86;97044.28;5031364;28;20183;-71
2023/10/23 10:50:34;;;;;;;5.80;3.37;;;;;;;15.78;53.82;97050.22;5030392;28;20422;-69
2023/10/23 10:53:04;;;;;;;4.73;3.03;;;;;;;15.81;53.88;97042.72;5029230;28;20496;-70
2023/10/23 10:55:30;;;;;;;9.13;3.20;;;;;;;15.87;53.83;97037.72;5034384;28;20427;-69
2023/10/23 10:57:55;;;;;;;9.40;3.30;;;;;;;15.91;53.65;97023.09;5031602;28;20427;-70
2023/10/23 11:00:22;;;;;;;10.70;3.20;;;;;;;15.96;53.82;97026.00;5035451;28;20449;-70
2023/10/23 11:02:48;;;;;;;9.47;3.03;;;;;;;16.01;53.68;97023.59;5032199;28;20203;-70
2023/10/23 11:05:14;;;;;;;7.83;3.20;;;;;;;16.03;53.67;97016.28;5024598;28;20433;-70
2023/10/23 11:07:39;;;;;;;3.73;2.93;;;;;;;16.06;53.57;97012.47;5034293;28;20179;-69
2023/10/23 11:10:05;;;;;;;6.13;3.20;;;;;;;16.08;53.65;97003.31;5041136;28;20188;-72
2023/10/23 11:12:31;;;;;;;4.63;2.93;;;;;;;16.12;53.32;97003.75;5030438;28;20192;-69
2023/10/23 11:14:57;;;;;;;7.27;3.27;;;;;;;16.16;53.34;96996.25;5016104;28;20457;-69
2023/10/23 11:17:23;;;;;;;3.27;2.87;;;;;;;16.08;53.10;96991.94;5038736;28;20206;-70
2023/10/23 11:19:48;;;;;;;5.50;3.33;;;;;;;16.10;53.57;96980.16;5035675;28;20265;-70
2023/10/23 11:22:15;;;;;;;5.67;3.10;;;;;;;16.11;53.58;96979.16;4998801;28;20470;-69
2023/10/23 11:24:41;;;;;;;5.47;3.40;;;;;;;16.16;53.61;96964.53;5033272;28;20654;-70
2023/10/23 11:27:07;;;;;;;6.00;3.23;;;;;;;16.18;53.61;96957.22;5032743;28;20476;-69